Time;durP1;ratioP1;P1;durP2;ratioP2;P2;SDS_P1;SDS_P2;PMS_P1;PMS_P2;Temp;Humidity;BMP_temperature;BMP_pressure;BME280_temperature;BME280_humidity;BME280_pressure;Samples;Min_cycle;Max_cycle;Signal;HPM_P1;HPM_P2
2024/03/13 06:00:41;;;;;;;3.03;1.30;;;7.80;98.30;;;;;;4907895;23;20070;-75
2024/03/13 06:02:43;;;;;;;2.70;1.30;;;7.80;98.40;;;;;;4053827;29;20132;-74
2024/03/13 06:04:45;;;;;;;3.58;1.50;;;7.80;98.50;;;;;;4053348;29;20057;-75
2024/03/13 06:06:49;;;;;;;3.13;1.30;;;7.80;98.40;;;;;;4068580;29;20059;-75
2024/03/13 06:08:51;;;;;;;3.17;1.30;;;7.90;98.30;;;;;;4053352;29;20084;-75
2024/03/13 06:10:53;;;;;;;2.65;1.25;;;7.80;98.10;;;;;;4052962;29;20053;-76
2024/03/13 06:12:55;;;;;;;2.80;1.52;;;7.90;98.10;;;;;;4052879;29;20056;-74
2024/03/13 06:14:56;;;;;;;3.22;1.50;;;7.80;98.20;;;;;;4068574;29;20481;-76
2024/03/13 06:16:58;;;;;;;2.70;1.40;;;7.90;98.10;;;;;;4052591;29;20050;-75
2024/03/13 06:19:00;;;;;;;2.95;1.50;;;7.90;98.40;;;;;;4083908;29;20056;-75
2024/03/13 06:21:03;;;;;;;4.22;1.40;;;7.90;98.20;;;;;;4052917;29;20049;-73
2024/03/13 06:23:06;;;;;;;4.28;1.40;;;7.90;98.20;;;;;;4068786;29;20052;-77
2024/03/13 06:25:08;;;;;;;3.60;1.30;;;7.90;98.30;;;;;;4053286;29;20561;-76
2024/03/13 06:27:15;;;;;;;2.75;1.30;;;7.90;98.20;;;;;;4052750;29;20398;-76
2024/03/13 06:31:45;;;;;;;3.75;1.30;;;7.90;98.50;;;;;;4026947;29;20095;-75
2024/03/13 06:33:47;;;;;;;3.08;1.55;;;7.90;98.70;;;;;;4052485;29;20143;-75
2024/03/13 06:35:48;;;;;;;3.28;1.60;;;7.90;98.70;;;;;;4052735;29;20104;-75
2024/03/13 06:37:50;;;;;;;3.20;1.60;;;7.90;99.00;;;;;;4068442;29;20103;-74
2024/03/13 06:39:53;;;;;;;3.53;1.77;;;7.90;98.90;;;;;;4068010;29;20095;-76
2024/03/13 06:41:54;;;;;;;3.10;1.80;;;7.90;98.70;;;;;;4053202;29;20479;-75
2024/03/13 06:43:56;;;;;;;3.67;1.67;;;7.90;99.00;;;;;;4052604;29;20446;-76
2024/03/13 06:45:57;;;;;;;4.35;1.73;;;8.00;98.70;;;;;;4083493;29;20079;-74
2024/03/13 06:47:59;;;;;;;3.60;1.80;;;8.00;98.60;;;;;;4052270;29;20418;-76
2024/03/13 06:50:01;;;;;;;4.20;1.77;;;8.00;98.50;;;;;;4068312;29;20096;-74
2024/03/13 06:52:03;;;;;;;3.95;1.70;;;8.00;98.60;;;;;;4052765;29;20059;-73
2024/03/13 06:54:06;;;;;;;4.93;2.08;;;8.10;98.70;;;;;;4052225;29;20049;-74
2024/03/13 06:56:08;;;;;;;4.03;1.90;;;8.10;98.90;;;;;;4052868;29;20052;-75
2024/03/13 06:58:11;;;;;;;3.83;2.28;;;8.00;98.90;;;;;;4052322;29;20455;-74
2024/03/13 07:00:16;;;;;;;4.10;2.25;;;8.10;99.00;;;;;;4067920;29;20055;-75
2024/03/13 07:02:18;;;;;;;4.55;2.17;;;8.00;99.30;;;;;;4053370;29;20063;-76
2024/03/13 07:04:22;;;;;;;4.03;2.30;;;8.00;99.30;;;;;;4052642;29;20479;-76
2024/03/13 07:06:24;;;;;;;3.55;2.20;;;8.00;99.60;;;;;;4068275;29;20568;-75
2024/03/13 07:08:26;;;;;;;4.50;2.42;;;7.90;99.80;;;;;;4052721;29;20044;-76
2024/03/13 07:10:28;;;;;;;3.63;2.10;;;8.00;99.50;;;;;;4068197;29;20092;-75
2024/03/13 07:12:31;;;;;;;4.15;1.98;;;8.00;99.40;;;;;;4052090;29;20048;-78
2024/03/13 07:14:33;;;;;;;4.90;2.35;;;8.10;99.60;;;;;;4067839;29;20061;-75
2024/03/13 07:16:34;;;;;;;3.90;2.47;;;8.10;99.80;;;;;;4052269;29;20100;-76
2024/03/13 07:18:37;;;;;;;4.13;2.20;;;8.10;99.60;;;;;;4067995;29;20102;-74
2024/03/13 07:20:40;;;;;;;3.60;2.13;;;8.20;99.80;;;;;;4052364;29;20105;-74
2024/03/13 07:22:42;;;;;;;4.05;2.22;;;8.20;99.70;;;;;;4068160;29;20044;-75
2024/03/13 07:24:43;;;;;;;3.38;1.90;;;8.20;99.70;;;;;;4051952;29;20084;-76
2024/03/13 07:26:45;;;;;;;3.13;2.03;;;8.30;99.70;;;;;;4052816;29;20054;-75
2024/03/13 07:28:46;;;;;;;3.80;2.47;;;8.30;99.90;;;;;;4086624;29;20052;-75
2024/03/13 07:30:51;;;;;;;3.72;2.17;;;8.20;99.90;;;;;;4055748;29;20091;-75
2024/03/13 07:32:52;;;;;;;3.88;1.88;;;8.30;99.90;;;;;;4055903;29;20467;-74
2024/03/13 07:34:54;;;;;;;3.90;2.17;;;8.30;99.90;;;;;;4070981;29;20052;-76
2024/03/13 07:36:56;;;;;;;4.43;2.30;;;8.40;99.90;;;;;;4086495;29;20055;-76
2024/03/13 07:38:59;;;;;;;4.07;2.15;;;8.40;99.90;;;;;;4054986;29;20104;-75
2024/03/13 07:41:01;;;;;;;3.92;2.22;;;8.40;99.90;;;;;;4071223;29;20135;-75
2024/03/13 07:43:03;;;;;;;4.40;2.22;;;8.30;99.90;;;;;;4055491;29;20128;-76
2024/03/13 07:45:06;;;;;;;3.53;2.13;;;8.30;99.90;;;;;;4055247;29;20048;-73
2024/03/13 07:47:08;;;;;;;3.70;2.15;;;8.30;99.90;;;;;;4070398;29;20048;-75
2024/03/13 07:49:10;;;;;;;4.97;2.13;;;8.30;99.90;;;;;;4055001;29;20124;-75
2024/03/13 07:51:12;;;;;;;4.72;2.42;;;8.50;99.90;;;;;;4054958;29;20139;-76
2024/03/13 07:53:14;;;;;;;3.15;1.90;;;8.50;99.90;;;;;;4055197;29;20049;-76
2024/03/13 07:55:17;;;;;;;3.42;1.85;;;8.60;99.90;;;;;;4054934;29;20052;-75
2024/03/13 07:57:19;;;;;;;5.07;1.90;;;8.60;99.90;;;;;;4070605;29;20466;-76
2024/03/13 07:59:25;;;;;;;3.30;1.65;;;8.70;99.90;;;;;;4054862;29;20080;-76
2024/03/13 08:01:27;;;;;;;3.15;1.67;;;8.70;99.90;;;;;;4055565;29;20056;-76
2024/03/13 08:03:29;;;;;;;3.97;1.77;;;8.70;99.90;;;;;;4054929;29;20101;-75
2024/03/13 08:05:31;;;;;;;4.70;1.75;;;8.70;99.90;;;;;;4070137;29;20103;-76
2024/03/13 08:07:34;;;;;;;4.45;2.20;;;8.80;99.90;;;;;;4054941;29;20479;-74
2024/03/13 08:09:37;;;;;;;5.32;2.05;;;8.80;99.90;;;;;;4054780;29;20053;-76
2024/03/13 08:11:38;;;;;;;5.63;1.85;;;8.90;99.90;;;;;;4054747;29;20049;-75
2024/03/13 08:13:40;;;;;;;2.10;1.00;;;8.90;99.90;;;;;;4054654;29;20045;-76
2024/03/13 08:15:42;;;;;;;3.22;1.27;;;8.90;99.90;;;;;;4085806;29;20450;-74
2024/03/13 08:17:45;;;;;;;2.70;1.00;;;8.90;99.90;;;;;;4054413;29;20100;-76
2024/03/13 08:19:47;;;;;;;2.88;1.20;;;8.90;99.90;;;;;;4070161;29;20080;-74
2024/03/13 08:21:49;;;;;;;4.82;1.40;;;9.00;99.90;;;;;;4054603;29;20104;-73
2024/03/13 08:23:51;;;;;;;12.48;6.28;;;9.00;99.90;;;;;;4070330;29;20469;-75
2024/03/13 08:25:53;;;;;;;5.25;2.33;;;9.10;99.90;;;;;;4054395;29;20409;-74
2024/03/13 08:27:56;;;;;;;4.15;1.63;;;9.10;99.90;;;;;;4054159;29;20100;-74
2024/03/13 08:29:59;;;;;;;4.03;1.50;;;9.00;99.90;;;;;;4069929;29;20052;-73
2024/03/13 08:32:01;;;;;;;13.20;6.80;;;9.10;99.90;;;;;;4054283;29;20555;-76
2024/03/13 08:34:05;;;;;;;5.05;1.45;;;9.10;99.90;;;;;;4054334;29;20064;-74
2024/03/13 08:36:07;;;;;;;4.70;1.83;;;9.10;99.90;;;;;;4069874;29;20104;-75
2024/03/13 08:38:08;;;;;;;2.15;0.70;;;9.20;99.90;;;;;;4054242;29;20411;-76
2024/03/13 08:40:13;;;;;;;2.03;0.80;;;9.10;99.90;;;;;;4069298;29;20095;-75
2024/03/13 08:42:14;;;;;;;2.15;0.90;;;9.20;99.90;;;;;;4070094;29;20051;-74
2024/03/13 08:44:16;;;;;;;2.80;0.73;;;9.20;99.90;;;;;;4054122;29;20104;-76
2024/03/13 08:46:19;;;;;;;2.78;0.82;;;9.20;99.90;;;;;;4085424;29;20515;-76
2024/03/13 08:48:20;;;;;;;3.03;0.88;;;9.20;99.90;;;;;;4054201;29;20044;-74
2024/03/13 08:50:22;;;;;;;2.38;1.00;;;9.20;99.90;;;;;;4054061;29;20434;-74
2024/03/13 08:52:23;;;;;;;1.75;0.80;;;9.30;99.90;;;;;;4085381;29;20051;-74
2024/03/13 08:54:25;;;;;;;2.00;0.82;;;9.40;99.90;;;;;;4054010;29;20049;-75
2024/03/13 08:56:27;;;;;;;2.65;0.93;;;9.40;99.90;;;;;;4085284;29;20055;-74
2024/03/13 08:58:29;;;;;;;2.53;0.90;;;9.40;99.90;;;;;;4054178;29;20127;-74
2024/03/13 09:00:31;;;;;;;1.88;0.80;;;9.40;99.90;;;;;;4054138;29;20045;-74
2024/03/13 09:02:33;;;;;;;2.88;0.98;;;9.40;99.90;;;;;;4053980;29;20475;-74
2024/03/13 09:04:35;;;;;;;3.10;1.00;;;9.40;99.90;;;;;;4084894;29;20398;-74
2024/03/13 09:06:38;;;;;;;3.72;1.10;;;9.40;99.90;;;;;;4053778;29;20056;-75
2024/03/13 09:08:40;;;;;;;3.15;1.05;;;9.50;99.90;;;;;;4053821;29;20044;-74
2024/03/13 09:10:42;;;;;;;2.50;0.90;;;9.50;99.90;;;;;;4053868;29;20150;-75
2024/03/13 09:12:45;;;;;;;4.07;1.92;;;9.50;99.90;;;;;;4069454;29;20466;-75
2024/03/13 09:14:47;;;;;;;2.70;1.38;;;9.50;99.90;;;;;;4054138;29;20055;-75
2024/03/13 09:16:48;;;;;;;3.05;1.42;;;9.50;99.90;;;;;;4053660;29;20115;-75
2024/03/13 09:18:50;;;;;;;2.50;1.10;;;9.50;99.90;;;;;;4053445;29;20056;-76
2024/03/13 09:20:53;;;;;;;4.63;1.20;;;9.50;99.90;;;;;;4084877;29;20548;-75
2024/03/13 09:22:57;;;;;;;2.85;1.40;;;9.60;99.90;;;;;;4047824;29;20126;-76
2024/03/13 09:24:59;;;;;;;3.22;1.40;;;9.60;99.90;;;;;;4049807;29;20139;-75
2024/03/13 09:27:02;;;;;;;2.53;1.20;;;9.50;99.90;;;;;;4051449;29;20059;-77
2024/03/13 09:29:04;;;;;;;2.95;1.30;;;9.50;99.90;;;;;;4051142;29;20100;-75
2024/03/13 09:31:06;;;;;;;3.70;1.30;;;9.60;99.90;;;;;;4051413;29;20859;-73
2024/03/13 09:33:10;;;;;;;2.75;1.40;;;9.60;99.90;;;;;;4051391;29;20064;-75
2024/03/13 09:35:16;;;;;;;3.75;1.40;;;9.60;99.90;;;;;;4051335;29;20052;-75
2024/03/13 09:37:20;;;;;;;;;;;9.60;99.90;;;;;;4052323;29;20056;-75
2024/03/13 09:39:22;;;;;;;3.65;1.35;;;9.60;99.90;;;;;;4071652;29;20045;-74
2024/03/13 09:41:24;;;;;;;2.20;1.00;;;9.70;99.90;;;;;;4066509;29;20112;-76
2024/03/13 09:43:27;;;;;;;3.35;1.15;;;9.70;99.90;;;;;;4066340;29;20099;-76
2024/03/13 09:45:28;;;;;;;2.80;1.25;;;9.70;99.90;;;;;;4066368;29;20143;-73
2024/03/13 09:47:31;;;;;;;3.95;1.20;;;9.70;99.90;;;;;;4066043;29;20115;-75
2024/03/13 09:49:33;;;;;;;2.90;1.20;;;9.80;99.90;;;;;;4066082;29;20564;-75
2024/03/13 09:51:36;;;;;;;2.63;1.02;;;9.80;99.90;;;;;;4065574;29;20100;-75
2024/03/13 09:53:38;;;;;;;3.30;1.10;;;9.80;99.90;;;;;;4051093;29;20772;-76
2024/03/13 09:55:40;;;;;;;2.88;1.10;;;9.80;99.90;;;;;;4050688;29;20056;-74
2024/03/13 09:57:42;;;;;;;2.45;1.08;;;9.80;99.90;;;;;;4066043;29;20506;-75
2024/03/13 09:59:46;;;;;;;2.88;0.88;;;9.80;99.90;;;;;;4050188;29;20089;-75
2024/03/13 10:01:48;;;;;;;3.80;0.90;;;9.80;99.90;;;;;;4066005;29;20577;-75
2024/03/13 10:03:50;;;;;;;3.55;1.00;;;9.80;99.90;;;;;;4050567;29;20560;-74
2024/03/13 10:05:53;;;;;;;2.28;0.90;;;9.80;99.90;;;;;;4065921;29;20623;-75
2024/03/13 10:07:56;;;;;;;2.83;1.00;;;9.80;99.90;;;;;;4050541;29;20585;-76
2024/03/13 10:09:58;;;;;;;2.10;0.90;;;9.90;99.90;;;;;;4065985;29;20051;-76
2024/03/13 10:12:00;;;;;;;2.65;1.10;;;9.90;99.90;;;;;;4050090;29;20052;-74
2024/03/13 10:14:02;;;;;;;3.50;1.33;;;9.90;99.90;;;;;;4050407;29;20062;-76
2024/03/13 10:16:06;;;;;;;3.58;1.08;;;10.00;99.90;;;;;;4066120;29;20048;-75
2024/03/13 10:18:08;;;;;;;2.95;1.10;;;10.00;99.90;;;;;;4050619;29;20108;-76
2024/03/13 10:20:13;;;;;;;2.35;1.17;;;10.00;99.90;;;;;;4050371;29;20056;-75
2024/03/13 10:22:16;;;;;;;2.95;1.00;;;10.10;99.90;;;;;;4066040;29;20062;-75
2024/03/13 10:24:22;;;;;;;2.35;0.80;;;10.30;99.90;;;;;;4051289;29;20056;-73
2024/03/13 10:26:24;;;;;;;3.67;1.10;;;10.30;99.90;;;;;;4049362;29;20494;-75
2024/03/13 10:28:26;;;;;;;2.95;0.90;;;10.30;99.90;;;;;;4050217;29;20477;-75
2024/03/13 10:30:28;;;;;;;2.55;0.95;;;10.30;99.90;;;;;;4065642;29;20099;-74
2024/03/13 10:32:30;;;;;;;2.38;0.90;;;10.30;99.90;;;;;;4065858;29;20585;-75
2024/03/13 10:34:33;;;;;;;2.58;1.13;;;10.40;99.90;;;;;;4049665;29;20052;-75
2024/03/13 10:36:34;;;;;;;2.10;0.95;;;10.50;99.90;;;;;;4050144;29;20049;-75
2024/03/13 10:38:36;;;;;;;2.35;0.85;;;10.50;99.90;;;;;;4065819;29;20158;-75
2024/03/13 10:40:39;;;;;;;2.83;0.70;;;10.60;99.90;;;;;;4049967;29;20088;-74
2024/03/13 10:42:42;;;;;;;2.55;0.90;;;10.60;99.90;;;;;;4050647;29;20714;-75
2024/03/13 10:44:46;;;;;;;2.33;0.90;;;10.60;99.90;;;;;;4050146;29;20052;-77
2024/03/13 10:46:49;;;;;;;2.58;1.00;;;10.70;99.90;;;;;;4050086;29;20057;-74
2024/03/13 10:48:52;;;;;;;2.10;0.80;;;10.70;99.90;;;;;;4050162;29;20052;-76
2024/03/13 10:50:55;;;;;;;1.98;0.80;;;10.70;99.90;;;;;;4049769;29;20403;-76
2024/03/13 10:52:57;;;;;;;2.22;0.90;;;10.80;99.90;;;;;;4050060;29;20159;-73
2024/03/13 10:55:00;;;;;;;1.80;0.85;;;10.80;99.90;;;;;;4049937;29;20079;-75
2024/03/13 10:57:02;;;;;;;3.67;1.00;;;10.80;99.90;;;;;;4049904;29;20487;-79
2024/03/13 10:59:04;;;;;;;2.40;0.90;;;10.90;99.90;;;;;;4049521;29;20060;-77
2024/03/13 11:01:06;;;;;;;2.40;0.90;;;11.00;99.90;;;;;;4049605;29;20101;-80
2024/03/13 11:03:10;;;;;;;2.50;1.10;;;10.90;99.90;;;;;;4065418;29;20091;-76
2024/03/13 11:05:14;;;;;;;3.00;0.90;;;11.00;99.90;;;;;;4050542;29;20049;-76
2024/03/13 11:07:16;;;;;;;2.20;0.88;;;11.00;99.90;;;;;;4050292;29;20056;-76
2024/03/13 11:09:20;;;;;;;2.15;0.85;;;11.10;99.90;;;;;;4050472;29;20060;-77
2024/03/13 11:11:22;;;;;;;2.35;0.98;;;11.20;99.80;;;;;;4050190;29;20060;-74
2024/03/13 11:13:25;;;;;;;2.95;0.90;;;11.20;99.60;;;;;;4050153;29;20579;-77
2024/03/13 11:15:27;;;;;;;3.53;1.05;;;11.20;99.70;;;;;;4065716;29;20052;-77
2024/03/13 11:17:29;;;;;;;3.65;1.42;;;11.10;99.90;;;;;;4050030;29;20586;-78
2024/03/13 11:19:32;;;;;;;3.38;1.33;;;11.20;99.90;;;;;;4049799;29;20061;-76
2024/03/13 11:21:33;;;;;;;2.67;1.27;;;11.20;99.90;;;;;;4065286;29;20153;-77
2024/03/13 11:23:35;;;;;;;2.70;0.90;;;11.30;99.90;;;;;;4049366;29;20049;-76
2024/03/13 11:25:37;;;;;;;2.13;1.00;;;11.20;99.80;;;;;;4063630;29;20077;-76
2024/03/13 11:27:40;;;;;;;2.58;1.05;;;11.20;99.90;;;;;;4065585;29;20500;-77
2024/03/13 11:29:43;;;;;;;2.47;1.08;;;11.20;99.70;;;;;;4050018;29;20486;-77
2024/03/13 11:31:46;;;;;;;2.50;1.00;;;11.20;99.90;;;;;;4049915;29;20557;-77
2024/03/13 11:33:49;;;;;;;2.67;1.00;;;11.20;99.80;;;;;;4050224;29;20525;-75
2024/03/13 11:35:51;;;;;;;2.72;1.30;;;11.30;99.90;;;;;;4049800;29;20062;-76
2024/03/13 11:37:54;;;;;;;3.13;1.38;;;11.40;99.90;;;;;;4049861;29;20059;-76
2024/03/13 11:39:57;;;;;;;3.53;1.60;;;11.40;99.80;;;;;;4065301;29;20095;-76
2024/03/13 11:42:08;;;;;;;3.88;1.38;;;11.40;99.90;;;;;;4050303;29;20142;-77
2024/03/13 11:44:10;;;;;;;4.50;1.10;;;11.40;99.90;;;;;;4050024;29;20049;-77
2024/03/13 11:46:14;;;;;;;2.00;0.95;;;11.40;99.70;;;;;;4049815;29;20108;-77
2024/03/13 11:48:16;;;;;;;3.50;1.42;;;11.30;99.70;;;;;;4050384;29;20052;-76
2024/03/13 11:50:18;;;;;;;2.70;1.23;;;11.30;99.90;;;;;;4049649;29;20059;-76
2024/03/13 11:52:20;;;;;;;3.03;1.30;;;11.40;99.90;;;;;;4065222;29;20048;-76
2024/03/13 11:54:30;;;;;;;4.50;1.30;;;11.40;99.90;;;;;;4064552;29;20817;-76
2024/03/13 11:56:33;;;;;;;2.95;1.25;;;11.50;99.90;;;;;;4064629;29;20127;-76
2024/03/13 11:58:36;;;;;;;2.60;1.10;;;11.50;99.90;;;;;;4049331;29;20057;-77
2024/03/13 12:00:38;;;;;;;2.47;1.10;;;11.50;99.90;;;;;;4049062;29;20127;-77
2024/03/13 12:02:39;;;;;;;2.33;1.10;;;11.70;99.90;;;;;;4049466;29;20112;-76
2024/03/13 12:04:43;;;;;;;2.30;1.10;;;11.70;99.90;;;;;;4065226;29;20534;-77
2024/03/13 12:06:47;;;;;;;2.50;1.08;;;11.70;99.90;;;;;;4065018;29;20494;-76
2024/03/13 12:08:49;;;;;;;2.70;1.25;;;11.70;99.90;;;;;;4049522;29;20140;-77
2024/03/13 12:10:53;;;;;;;2.92;1.25;;;11.70;99.90;;;;;;4048867;29;20056;-78
2024/03/13 12:12:54;;;;;;;3.50;1.20;;;11.70;99.90;;;;;;4060829;29;20486;-79
2024/03/13 12:14:56;;;;;;;2.60;1.23;;;11.80;99.90;;;;;;4042315;29;20101;-78
2024/03/13 12:16:57;;;;;;;2.50;1.02;;;11.90;99.90;;;;;;4048968;29;20052;-79
2024/03/13 12:18:59;;;;;;;2.97;1.30;;;12.00;99.90;;;;;;4059452;29;20055;-79
2024/03/13 12:21:02;;;;;;;2.70;1.10;;;12.00;99.90;;;;;;4045061;29;20088;-77
2024/03/13 12:23:03;;;;;;;2.40;1.10;;;12.10;99.90;;;;;;4042526;29;20159;-78
2024/03/13 12:25:06;;;;;;;2.88;1.33;;;12.10;99.90;;;;;;4035163;29;20108;-78
2024/03/13 12:27:09;;;;;;;2.40;1.00;;;12.00;99.90;;;;;;4044464;29;20056;-78
2024/03/13 12:29:11;;;;;;;2.78;1.23;;;12.00;99.90;;;;;;4043719;29;20063;-79
2024/03/13 12:31:13;;;;;;;2.53;1.23;;;12.00;99.90;;;;;;4043934;29;20514;-79
2024/03/13 12:33:15;;;;;;;4.20;1.20;;;12.00;99.90;;;;;;4064623;29;20088;-78
2024/03/13 12:35:17;;;;;;;3.00;1.40;;;12.10;99.90;;;;;;4045438;29;20057;-78
2024/03/13 12:37:19;;;;;;;3.13;1.42;;;12.10;99.90;;;;;;4066699;29;20286;-76
2024/03/13 12:39:22;;;;;;;2.80;1.20;;;12.10;99.90;;;;;;4042435;29;20063;-78
2024/03/13 12:41:24;;;;;;;2.58;1.30;;;12.10;99.90;;;;;;4038090;29;20527;-79
2024/03/13 12:43:27;;;;;;;3.28;1.40;;;12.10;99.90;;;;;;4049701;29;20060;-79
2024/03/13 12:45:29;;;;;;;2.75;1.20;;;12.10;99.90;;;;;;4066026;29;20530;-79
2024/03/13 12:47:32;;;;;;;2.88;1.25;;;12.10;99.90;;;;;;4042853;29;20094;-79
2024/03/13 12:49:35;;;;;;;2.63;1.10;;;11.90;99.90;;;;;;4058437;29;20112;-79
2024/03/13 12:51:38;;;;;;;3.17;1.00;;;11.90;99.90;;;;;;4043375;29;20089;-80
2024/03/13 12:53:41;;;;;;;2.33;1.10;;;12.00;99.90;;;;;;4042340;29;20143;-77
2024/03/13 12:55:43;;;;;;;2.50;1.08;;;12.10;99.90;;;;;;4043810;29;20793;-78
2024/03/13 12:57:45;;;;;;;2.28;1.05;;;12.10;99.90;;;;;;4036917;29;20173;-79
2024/03/13 12:59:51;;;;;;;2.28;1.15;;;12.10;99.90;;;;;;4049596;29;20076;-78
2024/03/13 13:01:54;;;;;;;3.42;1.23;;;12.10;99.90;;;;;;4065608;29;20539;-79
2024/03/13 13:03:56;;;;;;;2.45;1.35;;;12.10;99.90;;;;;;4040889;29;20088;-79
2024/03/13 13:05:58;;;;;;;4.95;1.98;;;12.10;99.90;;;;;;4061283;29;20792;-79
2024/03/13 13:08:00;;;;;;;5.57;2.00;;;12.10;99.90;;;;;;4043295;29;20096;-79
2024/03/13 13:10:03;;;;;;;3.60;1.30;;;12.10;99.90;;;;;;4064859;29;20092;-77
2024/03/13 13:12:06;;;;;;;2.78;1.20;;;12.00;99.90;;;;;;4071588;29;20047;-78
2024/03/13 13:14:09;;;;;;;2.88;1.23;;;12.00;99.90;;;;;;4036949;29;20056;-79
2024/03/13 13:16:12;;;;;;;3.58;1.40;;;12.00;99.90;;;;;;4043238;29;20060;-79
2024/03/13 13:18:15;;;;;;;2.42;1.00;;;11.90;99.90;;;;;;4039314;29;20048;-77
2024/03/13 13:20:18;;;;;;;2.47;1.10;;;11.80;99.90;;;;;;4047613;29;20665;-79
2024/03/13 13:22:20;;;;;;;3.13;1.30;;;11.80;99.90;;;;;;4036439;29;20445;-78
2024/03/13 13:24:24;;;;;;;3.03;1.20;;;11.70;99.90;;;;;;4044433;29;20052;-78
2024/03/13 13:26:26;;;;;;;2.30;1.00;;;11.80;99.90;;;;;;4059533;29;20052;-79
2024/03/13 13:28:28;;;;;;;2.35;0.95;;;11.80;99.90;;;;;;4042995;29;20044;-79
2024/03/13 13:30:30;;;;;;;2.15;0.95;;;11.80;99.90;;;;;;4064691;29;20063;-78
2024/03/13 13:32:32;;;;;;;1.92;0.98;;;11.80;99.90;;;;;;4039616;29;20044;-78
2024/03/13 13:34:35;;;;;;;2.70;1.00;;;11.70;99.90;;;;;;4060754;29;20075;-79
2024/03/13 13:36:37;;;;;;;1.75;0.98;;;11.80;99.90;;;;;;4046171;29;20101;-79
2024/03/13 13:38:39;;;;;;;2.70;1.00;;;11.90;99.90;;;;;;4039379;29;20104;-79
2024/03/13 13:40:41;;;;;;;2.25;1.00;;;11.90;99.90;;;;;;4042468;29;20104;-78
2024/03/13 13:42:43;;;;;;;2.20;0.90;;;12.00;99.90;;;;;;4058766;29;20045;-79
2024/03/13 13:44:44;;;;;;;3.15;1.20;;;12.10;99.90;;;;;;4036285;29;20129;-77
2024/03/13 13:46:46;;;;;;;4.50;1.70;;;12.20;99.90;;;;;;4060925;29;20536;-78
2024/03/13 13:48:48;;;;;;;3.70;1.55;;;12.30;99.90;;;;;;4049074;29;20048;-79
2024/03/13 13:50:51;;;;;;;2.50;1.00;;;12.40;99.90;;;;;;4055088;29;20083;-78
2024/03/13 13:52:53;;;;;;;2.13;1.00;;;12.50;99.90;;;;;;4046863;29;20506;-76
2024/03/13 13:54:55;;;;;;;3.30;1.60;;;12.50;99.90;;;;;;4042844;29;20044;-77
2024/03/13 13:56:57;;;;;;;2.47;1.00;;;12.50;99.90;;;;;;4064402;29;20383;-77
2024/03/13 13:58:59;;;;;;;2.97;1.00;;;12.50;99.90;;;;;;4039023;29;20053;-78
2024/03/13 14:01:00;;;;;;;2.35;1.00;;;12.50;99.90;;;;;;4035641;29;20534;-77
2024/03/13 14:03:02;;;;;;;2.58;1.13;;;12.50;99.90;;;;;;4060933;29;20082;-77
2024/03/13 14:05:06;;;;;;;2.63;1.05;;;12.50;99.90;;;;;;4064699;29;20044;-77
2024/03/13 14:07:08;;;;;;;4.32;0.88;;;12.40;99.90;;;;;;4064527;29;20131;-77
2024/03/13 14:09:13;;;;;;;2.78;0.90;;;12.30;99.90;;;;;;4041729;29;20080;-78
2024/03/13 14:11:15;;;;;;;2.22;0.70;;;12.20;99.90;;;;;;4061500;29;20048;-77
2024/03/13 14:13:17;;;;;;;1.58;0.80;;;12.30;99.90;;;;;;4038650;29;20658;-78
2024/03/13 14:15:20;;;;;;;1.70;0.80;;;12.30;99.90;;;;;;4061780;29;20048;-77
2024/03/13 14:17:24;;;;;;;2.28;0.90;;;12.30;99.90;;;;;;4054020;29;20076;-77
2024/03/13 14:19:26;;;;;;;2.03;0.80;;;12.30;99.90;;;;;;4043456;29;20422;-76
2024/03/13 14:21:28;;;;;;;3.00;0.93;;;12.20;99.90;;;;;;4035964;29;20095;-76
2024/03/13 14:23:29;;;;;;;2.80;1.02;;;12.10;99.90;;;;;;4035287;29;20082;-76
2024/03/13 14:25:32;;;;;;;1.90;0.90;;;12.20;99.90;;;;;;4059353;29;20127;-76
2024/03/13 14:27:33;;;;;;;1.83;0.70;;;12.20;99.90;;;;;;4050056;29;20128;-76
2024/03/13 14:29:36;;;;;;;2.15;0.90;;;12.20;99.90;;;;;;4038093;29;20428;-76
2024/03/13 14:31:38;;;;;;;2.65;1.00;;;12.20;99.90;;;;;;4061886;29;20085;-76
2024/03/13 14:33:40;;;;;;;2.25;0.90;;;12.30;99.90;;;;;;4044840;29;20097;-77
2024/03/13 14:35:42;;;;;;;1.77;0.70;;;12.30;99.90;;;;;;4061380;29;20123;-75
2024/03/13 14:37:44;;;;;;;2.20;0.80;;;12.30;99.90;;;;;;4043588;29;20467;-76
2024/03/13 14:39:46;;;;;;;1.98;0.80;;;12.30;99.90;;;;;;4061676;29;20048;-76
2024/03/13 14:41:48;;;;;;;1.95;0.90;;;12.30;99.90;;;;;;4042220;29;20522;-77
2024/03/13 14:43:50;;;;;;;6.60;3.40;;;12.30;99.90;;;;;;4063942;29;20048;-78
2024/03/13 14:45:53;;;;;;;7.47;3.50;;;12.30;99.90;;;;;;4037571;29;20048;-77
2024/03/13 14:47:55;;;;;;;5.25;2.47;;;12.30;99.90;;;;;;4061431;29;20052;-77
2024/03/13 14:49:56;;;;;;;3.35;1.50;;;12.30;99.90;;;;;;4037755;29;20049;-78
2024/03/13 14:51:58;;;;;;;3.45;1.30;;;12.30;99.90;;;;;;4061632;29;20490;-78
2024/03/13 14:54:00;;;;;;;2.45;1.10;;;12.30;99.90;;;;;;4064029;29;20103;-77
2024/03/13 14:56:01;;;;;;;2.95;1.33;;;12.30;99.90;;;;;;4037567;29;20088;-76
2024/03/13 14:58:03;;;;;;;2.47;0.90;;;12.40;99.90;;;;;;4060860;29;20044;-79
2024/03/13 15:00:09;;;;;;;1.83;0.80;;;12.40;99.90;;;;;;4078356;29;20071;-77
2024/03/13 15:02:12;;;;;;;2.38;0.70;;;12.40;99.90;;;;;;4042579;29;20499;-78
2024/03/13 15:04:14;;;;;;;2.92;0.90;;;12.50;99.90;;;;;;4037415;29;20431;-76
2024/03/13 15:06:17;;;;;;;1.33;0.55;;;12.50;99.90;;;;;;4036578;29;20132;-78
2024/03/13 15:08:19;;;;;;;2.05;0.80;;;12.50;99.90;;;;;;4034683;29;20192;-78
2024/03/13 15:10:22;;;;;;;2.08;0.60;;;12.50;99.90;;;;;;4047965;29;20053;-79
2024/03/13 15:12:23;;;;;;;9.73;4.32;;;12.60;99.90;;;;;;4049195;29;20092;-77
2024/03/13 15:14:25;;;;;;;11.57;6.35;;;12.60;99.90;;;;;;4041995;29;20135;-77
2024/03/13 15:16:28;;;;;;;8.70;4.15;;;12.60;99.90;;;;;;4064679;29;20549;-78
2024/03/13 15:18:30;;;;;;;5.95;2.70;;;12.60;99.90;;;;;;4064736;29;20052;-79
2024/03/13 15:20:33;;;;;;;3.40;1.60;;;12.70;99.90;;;;;;4044032;29;20049;-78
2024/03/13 15:22:35;;;;;;;3.17;1.48;;;12.70;99.90;;;;;;4056799;29;20088;-78
2024/03/13 15:24:38;;;;;;;2.95;1.35;;;12.70;99.90;;;;;;4046950;29;20066;-79
2024/03/13 15:26:41;;;;;;;2.90;1.25;;;12.60;99.90;;;;;;4050533;29;20049;-78
2024/03/13 15:28:43;;;;;;;4.88;2.38;;;12.60;99.90;;;;;;4047752;29;20058;-79
2024/03/13 15:30:45;;;;;;;5.15;2.40;;;12.70;99.90;;;;;;4041690;29;20089;-79
2024/03/13 15:32:46;;;;;;;7.32;2.53;;;12.70;99.90;;;;;;4063452;29;20399;-78
2024/03/13 15:34:48;;;;;;;4.80;2.22;;;12.70;99.90;;;;;;4046597;29;20403;-78
2024/03/13 15:36:50;;;;;;;4.90;2.42;;;12.60;99.90;;;;;;4048012;29;20044;-77
2024/03/13 15:38:52;;;;;;;5.00;2.10;;;12.70;99.90;;;;;;4046027;29;20060;-78
2024/03/13 15:40:54;;;;;;;2.25;0.80;;;12.80;99.90;;;;;;4047409;29;20131;-78
2024/03/13 15:42:56;;;;;;;2.88;0.95;;;12.70;99.90;;;;;;4048019;29;20045;-78
2024/03/13 15:44:58;;;;;;;4.10;0.90;;;12.60;99.90;;;;;;4070429;29;20198;-77
2024/03/13 15:47:00;;;;;;;2.75;0.90;;;12.60;99.90;;;;;;4047396;29;20068;-78
2024/03/13 15:49:02;;;;;;;2.47;1.00;;;12.50;99.90;;;;;;4067164;29;20048;-79
2024/03/13 15:51:06;;;;;;;2.67;1.10;;;12.50;99.90;;;;;;4043096;29;20048;-78
2024/03/13 15:53:09;;;;;;;2.10;0.82;;;12.50;99.90;;;;;;4039831;29;20136;-79
2024/03/13 15:55:11;;;;;;;2.65;1.20;;;12.50;99.90;;;;;;4066136;29;20081;-79
2024/03/13 15:57:12;;;;;;;2.78;1.02;;;12.40;99.90;;;;;;4051712;29;20051;-79
2024/03/13 15:59:14;;;;;;;3.47;1.10;;;12.30;99.90;;;;;;4042350;29;20053;-78
2024/03/13 16:01:16;;;;;;;3.55;1.58;;;12.30;99.90;;;;;;4052820;29;20060;-77
2024/03/13 16:03:18;;;;;;;3.25;1.13;;;12.30;99.90;;;;;;4037946;29;20550;-79
2024/03/13 16:05:21;;;;;;;3.13;1.10;;;12.20;99.90;;;;;;4044379;29;20057;-77
2024/03/13 16:07:23;;;;;;;2.70;1.30;;;12.20;99.90;;;;;;4053908;29;20061;-79
2024/03/13 16:09:26;;;;;;;2.38;0.98;;;12.20;99.90;;;;;;4044012;29;20053;-78
2024/03/13 16:11:30;;;;;;;4.32;1.10;;;12.30;99.90;;;;;;4059569;29;20521;-77
2024/03/13 16:13:32;;;;;;;2.85;1.05;;;12.30;99.90;;;;;;4052073;29;20052;-78
2024/03/13 16:15:35;;;;;;;2.60;1.20;;;12.30;99.90;;;;;;4043666;29;20056;-80
2024/03/13 16:17:38;;;;;;;3.17;1.17;;;12.30;99.90;;;;;;4060698;29;20489;-80
2024/03/13 16:19:40;;;;;;;3.85;1.60;;;12.30;99.90;;;;;;4037553;29;20092;-79
2024/03/13 16:21:43;;;;;;;2.63;1.00;;;12.30;99.90;;;;;;4037148;29;20616;-77
2024/03/13 16:23:45;;;;;;;2.75;1.20;;;12.30;99.90;;;;;;4067131;29;20132;-79
2024/03/13 16:25:47;;;;;;;14.23;7.85;;;12.30;99.90;;;;;;4042867;29;20084;-75
2024/03/13 16:27:48;;;;;;;16.35;7.68;;;12.30;99.90;;;;;;4052346;29;20104;-79
2024/03/13 16:29:50;;;;;;;21.88;11.60;;;12.20;99.90;;;;;;4068374;29;20048;-80
2024/03/13 16:31:53;;;;;;;20.45;9.50;;;12.20;99.90;;;;;;4044112;29;20061;-78
2024/03/13 16:33:55;;;;;;;6.80;3.20;;;12.10;99.90;;;;;;4066949;29;20048;-78
2024/03/13 16:35:57;;;;;;;3.60;1.80;;;12.10;99.90;;;;;;4062950;29;20049;-79
2024/03/13 16:37:59;;;;;;;3.97;1.70;;;12.10;99.90;;;;;;4051025;29;20056;-81
2024/03/13 16:40:03;;;;;;;4.85;1.55;;;12.10;99.90;;;;;;4066314;29;20058;-78
2024/03/13 16:42:05;;;;;;;3.05;1.33;;;12.00;99.90;;;;;;4043981;29;20620;-79